createdAt,value
2022-12-16T00:01:20.053Z,-3.10
2022-12-16T00:06:23.302Z,-3.10
2022-12-16T00:11:25.148Z,-3.10
2022-12-16T00:16:27.191Z,-3.10
2022-12-16T00:21:29.826Z,-3.10
2022-12-16T00:26:31.735Z,-3.10
2022-12-16T00:31:34.233Z,-3.10
2022-12-16T00:36:36.269Z,-3.10
2022-12-16T00:41:38.228Z,-3.10
2022-12-16T00:46:40.099Z,-3.10
2022-12-16T00:51:42.184Z,-3.10
2022-12-16T00:56:44.021Z,-3.10
2022-12-16T01:01:46.046Z,-3.10
2022-12-16T01:06:47.979Z,-3.10
2022-12-16T01:11:49.855Z,-3.10
2022-12-16T01:16:51.746Z,-3.10
2022-12-16T01:21:56.675Z,-3.10
2022-12-16T01:26:58.498Z,-3.10
2022-12-16T01:32:00.417Z,-3.10
2022-12-16T01:37:02.263Z,-3.20
2022-12-16T01:42:04.364Z,-3.20
2022-12-16T01:47:07.033Z,-3.20
2022-12-16T01:52:12.480Z,-3.20
2022-12-16T01:57:19.717Z,-3.20
2022-12-16T02:02:23.057Z,-3.20
2022-12-16T02:07:25.686Z,-3.20
2022-12-16T02:12:36.426Z,-3.20
2022-12-16T02:18:05.707Z,-3.20
2022-12-16T02:23:26.295Z,-3.20
2022-12-16T02:28:38.675Z,-3.20
2022-12-16T02:33:46.196Z,-3.20
2022-12-16T02:39:13.171Z,-3.20
2022-12-16T02:44:16.936Z,-3.20
2022-12-16T02:49:18.707Z,-3.20
2022-12-16T02:54:20.794Z,-3.20
2022-12-16T02:59:57.338Z,-3.20
2022-12-16T03:05:08.348Z,-3.20
2022-12-16T03:10:15.326Z,-3.30
2022-12-16T03:15:21.604Z,-3.20
2022-12-16T03:20:35.836Z,-3.20
2022-12-16T03:25:41.238Z,-3.20
2022-12-16T03:30:49.418Z,-3.20
2022-12-16T03:35:58.779Z,-3.20
2022-12-16T03:41:02.587Z,-3.10
2022-12-16T03:46:07.700Z,-3.10
2022-12-16T03:51:09.811Z,-3.10
2022-12-16T03:56:12.778Z,-3.10
2022-12-16T04:01:15.630Z,-3.10
2022-12-16T04:06:18.745Z,-3.10
2022-12-16T04:11:39.126Z,-3.00
2022-12-16T04:17:00.131Z,-3.00
2022-12-16T04:22:20.408Z,-3.00
2022-12-16T04:27:25.057Z,-2.90
2022-12-16T04:32:27.142Z,-2.90
2022-12-16T04:37:47.478Z,-2.80
2022-12-16T04:43:07.885Z,-2.80
2022-12-16T04:48:28.455Z,-2.70
2022-12-16T04:53:48.838Z,-2.70
2022-12-16T04:59:09.283Z,-2.60
2022-12-16T05:04:29.571Z,-2.60
2022-12-16T05:09:50.083Z,-2.60
2022-12-16T05:15:10.360Z,-2.60
2022-12-16T05:20:30.694Z,-2.60
2022-12-16T05:25:51.126Z,-2.60
2022-12-16T05:31:11.654Z,-2.50
2022-12-16T05:36:31.968Z,-2.50
2022-12-16T05:41:52.467Z,-2.40
2022-12-16T05:47:13.368Z,-2.30
2022-12-16T05:52:33.895Z,-2.30
2022-12-16T05:57:54.594Z,-2.10
2022-12-16T06:03:15.254Z,-2.10
2022-12-16T06:08:35.673Z,-2.10
2022-12-16T06:13:56.183Z,-2.00
2022-12-16T06:19:16.494Z,-1.90
2022-12-16T06:24:36.875Z,-2.00
2022-12-16T06:29:57.091Z,-2.00
2022-12-16T06:35:17.451Z,-2.00
2022-12-16T06:40:37.742Z,-2.00
2022-12-16T06:45:58.645Z,-1.90
2022-12-16T06:51:18.958Z,-1.90
2022-12-16T06:56:39.341Z,-1.90
2022-12-16T07:01:59.675Z,-1.80
2022-12-16T07:07:20.158Z,-1.80
2022-12-16T07:12:40.595Z,-1.70
2022-12-16T07:18:03.573Z,-1.70
2022-12-16T07:23:24.034Z,-1.60
2022-12-16T07:28:44.488Z,-1.60
2022-12-16T07:34:04.854Z,-1.50
2022-12-16T07:39:25.477Z,-1.50
2022-12-16T07:44:45.745Z,-1.50
2022-12-16T07:50:06.062Z,-1.50
2022-12-16T07:55:34.863Z,-1.50
2022-12-16T08:00:56.093Z,-1.50
2022-12-16T08:06:16.898Z,-1.40
2022-12-16T08:11:38.007Z,-1.50
2022-12-16T08:16:59.436Z,-1.50
2022-12-16T08:22:20.375Z,-1.50
2022-12-16T08:27:41.398Z,-1.40
2022-12-16T08:33:12.104Z,-1.40
2022-12-16T08:38:39.446Z,-1.40
2022-12-16T08:44:00.735Z,-1.40
2022-12-16T08:49:22.496Z,-1.50
2022-12-16T08:54:43.311Z,-1.50
2022-12-16T09:00:04.340Z,-1.50
2022-12-16T09:05:25.570Z,-1.40
2022-12-16T09:10:46.590Z,-1.50
2022-12-16T09:16:06.983Z,-1.50
2022-12-16T09:21:31.781Z,-1.50
2022-12-16T09:26:53.707Z,-1.60
2022-12-16T09:32:14.326Z,-1.60
2022-12-16T09:37:34.777Z,-1.50
2022-12-16T09:43:48.040Z,-1.50
2022-12-16T09:49:28.037Z,-1.50
2022-12-16T09:54:52.907Z,-1.40
2022-12-16T10:00:19.223Z,-1.30
2022-12-16T10:05:49.353Z,-1.10
2022-12-16T10:11:19.203Z,-1.00
2022-12-16T10:17:05.910Z,-0.90
2022-12-16T10:22:37.686Z,-0.90
2022-12-16T10:28:06.776Z,-0.50
2022-12-16T10:33:33.502Z,-0.20
2022-12-16T10:39:17.989Z,0.00
2022-12-16T10:44:56.218Z,0.20
2022-12-16T10:50:18.231Z,0.40
2022-12-16T10:55:51.271Z,0.20
2022-12-16T11:01:12.296Z,-0.10
2022-12-16T11:06:46.866Z,0.00
2022-12-16T11:12:07.182Z,0.40
2022-12-16T11:17:42.337Z,0.50
2022-12-16T11:23:02.657Z,0.20
2022-12-16T11:28:25.098Z,0.30
2022-12-16T11:33:47.031Z,0.50
2022-12-16T11:39:10.706Z,0.50
2022-12-16T11:44:38.839Z,0.30
2022-12-16T11:49:59.208Z,0.10
2022-12-16T11:55:55.536Z,0.40
2022-12-16T12:01:31.652Z,0.20
2022-12-16T12:07:01.053Z,0.40
2022-12-16T12:12:34.672Z,0.00
2022-12-16T12:18:15.971Z,-0.40
2022-12-16T12:24:11.809Z,-0.10
2022-12-16T12:29:46.046Z,0.20
2022-12-16T12:35:13.235Z,0.10
2022-12-16T12:41:02.433Z,0.00
2022-12-16T12:47:21.446Z,0.20
2022-12-16T12:52:56.020Z,0.30
2022-12-16T12:58:18.998Z,0.00
2022-12-16T13:03:56.201Z,-0.10
2022-12-16T13:09:17.419Z,0.00
2022-12-16T13:14:49.889Z,-0.10
2022-12-16T13:20:15.365Z,-0.10
2022-12-16T13:26:00.094Z,-0.20
2022-12-16T13:31:26.386Z,-0.10
2022-12-16T13:36:53.356Z,0.00
2022-12-16T13:42:19.286Z,-0.10
2022-12-16T13:48:13.074Z,-0.10
2022-12-16T13:53:35.831Z,-0.20
2022-12-16T13:58:58.509Z,-0.20
2022-12-16T14:04:20.734Z,-0.30
2022-12-16T14:09:59.728Z,-0.30
2022-12-16T14:15:39.942Z,-0.40
2022-12-16T14:21:09.663Z,-0.50
2022-12-16T14:26:32.519Z,-0.60
2022-12-16T14:32:01.701Z,-0.80
2022-12-16T14:37:32.364Z,-0.80
2022-12-16T14:42:52.694Z,-0.80
2022-12-16T14:48:14.212Z,-0.90
2022-12-16T14:53:41.346Z,-1.00
2022-12-16T14:59:01.544Z,-1.00
2022-12-16T15:04:27.426Z,-1.10
2022-12-16T15:09:56.150Z,-1.10
2022-12-16T15:15:17.782Z,-1.10
2022-12-16T15:20:45.734Z,-1.10
2022-12-16T15:26:15.332Z,-1.10
2022-12-16T15:31:45.493Z,-1.10
2022-12-16T15:37:05.854Z,-1.00
2022-12-16T15:42:39.924Z,-1.20
2022-12-16T15:48:00.232Z,-1.20
2022-12-16T15:54:06.631Z,-1.30
2022-12-16T15:59:44.145Z,-1.20
2022-12-16T16:05:04.442Z,-1.20
2022-12-16T16:10:42.574Z,-1.10
2022-12-16T16:16:03.493Z,-1.00
2022-12-16T16:21:24.127Z,-1.20
2022-12-16T16:26:46.569Z,-1.10
2022-12-16T16:32:07.091Z,-1.00
2022-12-16T16:37:35.322Z,-1.10
2022-12-16T16:42:55.995Z,-1.10
2022-12-16T16:48:30.585Z,-1.20
2022-12-16T16:53:50.873Z,-1.20
2022-12-16T16:59:11.294Z,-1.20
2022-12-16T17:04:31.675Z,-1.30
2022-12-16T17:09:52.282Z,-1.40
2022-12-16T17:15:12.587Z,-1.40
2022-12-16T17:20:35.610Z,-1.50
2022-12-16T17:25:56.298Z,-1.50
2022-12-16T17:31:21.828Z,-1.50
2022-12-16T17:36:42.578Z,-1.40
2022-12-16T17:42:03.767Z,-1.30
2022-12-16T17:47:28.148Z,-1.40
2022-12-16T17:52:49.071Z,-1.50
2022-12-16T17:58:09.347Z,-1.40
2022-12-16T18:03:31.442Z,-1.60
2022-12-16T18:08:52.067Z,-1.50
2022-12-16T18:14:12.473Z,-1.60
2022-12-16T18:19:34.245Z,-1.60
2022-12-16T18:24:55.998Z,-1.70
2022-12-16T18:30:16.302Z,-1.80
2022-12-16T18:35:36.723Z,-1.80
2022-12-16T18:40:57.139Z,-1.80
2022-12-16T18:46:17.691Z,-1.80
2022-12-16T18:51:39.077Z,-1.90
2022-12-16T18:56:59.429Z,-1.80
2022-12-16T19:02:19.867Z,-1.80
2022-12-16T19:07:40.489Z,-1.90
2022-12-16T19:13:01.332Z,-2.00
2022-12-16T19:18:23.664Z,-1.90
2022-12-16T19:23:44.139Z,-2.00
2022-12-16T19:29:05.443Z,-2.00
2022-12-16T19:34:27.459Z,-2.00
2022-12-16T19:39:47.811Z,-2.00
2022-12-16T19:45:09.755Z,-2.10
2022-12-16T19:50:30.873Z,-2.10
2022-12-16T19:55:53.058Z,-2.10
2022-12-16T20:01:13.518Z,-2.10
2022-12-16T20:06:35.444Z,-2.20
2022-12-16T20:12:00.161Z,-2.10
2022-12-16T20:17:20.694Z,-2.10
2022-12-16T20:22:43.869Z,-2.20
2022-12-16T20:28:04.279Z,-2.20
2022-12-16T20:33:24.608Z,-2.30
2022-12-16T20:38:45.063Z,-2.20
2022-12-16T20:44:07.028Z,-2.20
2022-12-16T20:49:27.491Z,-2.30
2022-12-16T20:54:47.908Z,-2.30
2022-12-16T21:00:08.335Z,-2.30
2022-12-16T21:05:29.948Z,-2.30
2022-12-16T21:10:51.622Z,-2.30
2022-12-16T21:16:12.349Z,-2.30
2022-12-16T21:21:32.871Z,-2.30
2022-12-16T21:26:53.601Z,-2.30
2022-12-16T21:32:18.511Z,-2.30
2022-12-16T21:37:38.978Z,-2.10
2022-12-16T21:42:59.387Z,-2.30
2022-12-16T21:48:19.823Z,-2.20
2022-12-16T22:00:33.801Z,-2.40
2022-12-16T22:05:54.268Z,-2.40
2022-12-16T22:11:16.747Z,-2.40
2022-12-16T22:16:37.284Z,-2.40
2022-12-16T22:21:58.145Z,-2.30
2022-12-16T22:27:18.458Z,-2.30
2022-12-16T22:32:38.900Z,-2.40
2022-12-16T22:37:59.346Z,-2.50
2022-12-16T22:43:19.708Z,-2.40
2022-12-16T22:48:40.086Z,-2.40
2022-12-16T22:54:00.496Z,-2.50
2022-12-16T22:59:20.891Z,-2.50
2022-12-16T23:04:41.271Z,-2.40
2022-12-16T23:10:01.843Z,-2.40
2022-12-16T23:15:22.924Z,-2.50
2022-12-16T23:20:43.260Z,-2.50
2022-12-16T23:26:17.040Z,-2.50
2022-12-16T23:31:37.604Z,-2.50
2022-12-16T23:36:58.054Z,-2.60
2022-12-16T23:42:18.505Z,-2.60
2022-12-16T23:47:38.857Z,-2.50
2022-12-16T23:52:59.351Z,-2.60
2022-12-16T23:58:21.164Z,-2.50
